ANS854 SABE-SASA
Flight info
| Callsign | ANS854 |
|---|---|
| Flight time | 1h 54m |
| Altitude | 32000 |
| Route | BIVAM4B BIVAM UW8 ERE UT672 DADMI UT677 ILPAR |
| Aircraft | MD82/M-SDFGIJ1RWY/S |
Departure
| Time | 2026-04-30 19:39 |
|---|---|
| Airport | Aeroparque Jorge Newbery (SABE) |
Arrival
| Time | 2026-04-30 21:33 |
|---|---|
| Airport | Martín Miguel de Güemes International Airport (SASA) |
| Time | Latitude | Longitude | Altitude | Speed | Heading |
|---|---|---|---|---|---|
| 2026-04-30 19:10 | -34.55788 | -58.41288 | 28 ft | 0 kts | 40° |
| 2026-04-30 19:31 | -34.55797 | -58.41297 | 28 ft | 4 kts | 31° |
| 2026-04-30 19:31 | -34.55817 | -58.41304 | 28 ft | 4 kts | 340° |
| 2026-04-30 19:31 | -34.55839 | -58.41271 | 28 ft | 0 kts | 303° |
| 2026-04-30 19:34 | -34.55839 | -58.41272 | 28 ft | 0 kts | 302° |
| 2026-04-30 19:35 | -34.55840 | -58.41283 | 28 ft | 3 kts | 257° |
| 2026-04-30 19:35 | -34.55845 | -58.41285 | 28 ft | 2 kts | 195° |
| 2026-04-30 19:35 | -34.55890 | -58.41299 | 28 ft | 11 kts | 213° |
| 2026-04-30 19:36 | -34.55881 | -58.41403 | 27 ft | 18 kts | 297° |
| 2026-04-30 19:36 | -34.55810 | -58.41570 | 27 ft | 25 kts | 297° |
| 2026-04-30 19:36 | -34.55627 | -58.41946 | 27 ft | 26 kts | 305° |
| 2026-04-30 19:37 | -34.55525 | -58.42123 | 28 ft | 25 kts | 306° |
| 2026-04-30 19:37 | -34.55418 | -58.42292 | 28 ft | 25 kts | 307° |
| 2026-04-30 19:37 | -34.55359 | -58.42436 | 27 ft | 17 kts | 274° |
| 2026-04-30 19:37 | -34.55392 | -58.42510 | 28 ft | 3 kts | 172° |
| 2026-04-30 19:38 | -34.55407 | -58.42501 | 28 ft | 0 kts | 135° |
| 2026-04-30 19:38 | -34.55411 | -58.42493 | 28 ft | 3 kts | 125° |
| 2026-04-30 19:38 | -34.55516 | -58.42307 | 29 ft | 55 kts | 124° |
| 2026-04-30 19:38 | -34.55858 | -58.41691 | 27 ft | 120 kts | 124° |
| 2026-04-30 19:39 | -34.56424 | -58.40675 | 112 ft | 163 kts | 123° |
| 2026-04-30 19:39 | -34.57065 | -58.39563 | 885 ft | 161 kts | 121° |
| 2026-04-30 19:39 | -34.57586 | -58.38292 | 1370 ft | 173 kts | 95° |
| 2026-04-30 19:39 | -34.57609 | -58.36876 | 2049 ft | 166 kts | 78° |
| 2026-04-30 19:40 | -34.57188 | -58.35540 | 2199 ft | 181 kts | 45° |
| 2026-04-30 19:40 | -34.56301 | -58.34455 | 2623 ft | 181 kts | 39° |
| 2026-04-30 19:40 | -34.55167 | -58.33677 | 2698 ft | 198 kts | 5° |
| 2026-04-30 19:40 | -34.53849 | -58.33968 | 3176 ft | 194 kts | 336° |
| 2026-04-30 19:41 | -34.52601 | -58.34710 | 3406 ft | 207 kts | 332° |
| 2026-04-30 19:41 | -34.51307 | -58.35624 | 3514 ft | 224 kts | 328° |
| 2026-04-30 19:41 | -34.49955 | -58.36742 | 3666 ft | 244 kts | 324° |
| 2026-04-30 19:41 | -34.48570 | -58.38030 | 4107 ft | 253 kts | 322° |
| 2026-04-30 19:42 | -34.47195 | -58.39398 | 4711 ft | 258 kts | 321° |
| 2026-04-30 19:42 | -34.45827 | -58.40820 | 5347 ft | 260 kts | 320° |
| 2026-04-30 19:42 | -34.44469 | -58.42272 | 6020 ft | 261 kts | 319° |
| 2026-04-30 19:42 | -34.43108 | -58.43754 | 6653 ft | 264 kts | 318° |
| 2026-04-30 19:43 | -34.41752 | -58.45245 | 7314 ft | 264 kts | 318° |
| 2026-04-30 19:43 | -34.40389 | -58.46747 | 7945 ft | 265 kts | 317° |
| 2026-04-30 19:43 | -34.39024 | -58.48259 | 8585 ft | 267 kts | 317° |
| 2026-04-30 19:44 | -34.36279 | -58.51311 | 9867 ft | 269 kts | 317° |
| 2026-04-30 19:44 | -34.34880 | -58.52861 | 10234 ft | 281 kts | 316° |
| 2026-04-30 19:44 | -34.33394 | -58.54511 | 10394 ft | 299 kts | 316° |
| 2026-04-30 19:44 | -34.31843 | -58.56235 | 10566 ft | 315 kts | 316° |
| 2026-04-30 19:45 | -34.30192 | -58.58072 | 10760 ft | 329 kts | 317° |
| 2026-04-30 19:45 | -34.28574 | -58.59865 | 11196 ft | 334 kts | 316° |
| 2026-04-30 19:45 | -34.26858 | -58.61758 | 11793 ft | 334 kts | 316° |
| 2026-04-30 19:45 | -34.25138 | -58.63655 | 12402 ft | 335 kts | 316° |
| 2026-04-30 19:46 | -34.23412 | -58.65563 | 12943 ft | 338 kts | 316° |
| 2026-04-30 19:46 | -34.21670 | -58.67488 | 13445 ft | 341 kts | 316° |
| 2026-04-30 19:46 | -34.19906 | -58.69427 | 13967 ft | 344 kts | 316° |
| 2026-04-30 19:46 | -34.18133 | -58.71372 | 14472 ft | 345 kts | 315° |
| 2026-04-30 19:47 | -34.16356 | -58.73324 | 14988 ft | 345 kts | 315° |
| 2026-04-30 19:47 | -34.15179 | -58.74621 | 15305 ft | 347 kts | 315° |
| 2026-04-30 19:47 | -34.12790 | -58.77260 | 15943 ft | 350 kts | 315° |
| 2026-04-30 19:47 | -34.10993 | -58.79245 | 16469 ft | 351 kts | 315° |
| 2026-04-30 19:48 | -34.09191 | -58.81233 | 16985 ft | 351 kts | 315° |
| 2026-04-30 19:48 | -34.07380 | -58.83230 | 17476 ft | 353 kts | 315° |
| 2026-04-30 19:48 | -34.05560 | -58.85237 | 17966 ft | 355 kts | 315° |
| 2026-04-30 19:48 | -34.03781 | -58.87198 | 18434 ft | 356 kts | 315° |
| 2026-04-30 19:49 | -34.01946 | -58.89219 | 18855 ft | 357 kts | 315° |
| 2026-04-30 19:49 | -33.98248 | -58.93287 | 19660 ft | 362 kts | 314° |
| 2026-04-30 19:49 | -33.96294 | -58.95216 | 20075 ft | 366 kts | 322° |
| 2026-04-30 19:50 | -33.94130 | -58.96854 | 20499 ft | 369 kts | 324° |
| 2026-04-30 19:50 | -33.91909 | -58.98432 | 20880 ft | 372 kts | 325° |
| 2026-04-30 19:50 | -33.89672 | -59.00012 | 21268 ft | 374 kts | 325° |
| 2026-04-30 19:50 | -33.87452 | -59.01585 | 21692 ft | 376 kts | 324° |
| 2026-04-30 19:51 | -33.85199 | -59.03194 | 22132 ft | 377 kts | 324° |
| 2026-04-30 19:51 | -33.82947 | -59.04821 | 22537 ft | 378 kts | 324° |
| 2026-04-30 19:51 | -33.80694 | -59.06461 | 22905 ft | 381 kts | 324° |
| 2026-04-30 19:51 | -33.78422 | -59.08122 | 23276 ft | 383 kts | 324° |
| 2026-04-30 19:52 | -33.76141 | -59.09795 | 23665 ft | 384 kts | 324° |
| 2026-04-30 19:52 | -33.73858 | -59.11470 | 24025 ft | 386 kts | 324° |
| 2026-04-30 19:52 | -33.71562 | -59.13152 | 24362 ft | 387 kts | 324° |
| 2026-04-30 19:52 | -33.69252 | -59.14841 | 24651 ft | 390 kts | 324° |
| 2026-04-30 19:53 | -33.66929 | -59.16537 | 24953 ft | 392 kts | 324° |
| 2026-04-30 19:53 | -33.64597 | -59.18236 | 25294 ft | 393 kts | 324° |
| 2026-04-30 19:53 | -33.62254 | -59.19941 | 25636 ft | 395 kts | 324° |
| 2026-04-30 19:53 | -33.59899 | -59.21652 | 25937 ft | 397 kts | 324° |
| 2026-04-30 19:54 | -33.57528 | -59.23370 | 26250 ft | 398 kts | 324° |
| 2026-04-30 19:54 | -33.55153 | -59.25088 | 26575 ft | 400 kts | 324° |
| 2026-04-30 19:54 | -33.52765 | -59.26813 | 26861 ft | 402 kts | 324° |
| 2026-04-30 19:54 | -33.50362 | -59.28549 | 27147 ft | 404 kts | 324° |
| 2026-04-30 19:55 | -33.47950 | -59.30292 | 27445 ft | 406 kts | 324° |
| 2026-04-30 19:55 | -33.45527 | -59.32043 | 27790 ft | 407 kts | 324° |
| 2026-04-30 19:55 | -33.43093 | -59.33803 | 28046 ft | 410 kts | 324° |
| 2026-04-30 19:55 | -33.40649 | -59.35570 | 28318 ft | 412 kts | 325° |
| 2026-04-30 19:56 | -33.38202 | -59.37339 | 28730 ft | 410 kts | 325° |
| 2026-04-30 19:56 | -33.35819 | -59.39057 | 29191 ft | 407 kts | 325° |
| 2026-04-30 19:56 | -33.33399 | -59.40798 | 29665 ft | 405 kts | 325° |
| 2026-04-30 19:56 | -33.30987 | -59.42532 | 30069 ft | 404 kts | 325° |
| 2026-04-30 19:57 | -33.28585 | -59.44260 | 30381 ft | 403 kts | 325° |
| 2026-04-30 19:57 | -33.26184 | -59.45988 | 30687 ft | 402 kts | 325° |
| 2026-04-30 19:57 | -33.23789 | -59.47708 | 31025 ft | 401 kts | 325° |
| 2026-04-30 19:57 | -33.21399 | -59.49419 | 31318 ft | 400 kts | 325° |
| 2026-04-30 19:58 | -33.19016 | -59.51125 | 31632 ft | 399 kts | 325° |
| 2026-04-30 19:58 | -33.16626 | -59.52835 | 31794 ft | 401 kts | 325° |
| 2026-04-30 19:58 | -33.11872 | -59.56237 | 31908 ft | 401 kts | 325° |
| 2026-04-30 19:59 | -33.07090 | -59.59658 | 31936 ft | 400 kts | 325° |
| 2026-04-30 20:00 | -32.99946 | -59.64766 | 31937 ft | 399 kts | 325° |
| 2026-04-30 20:00 | -32.95187 | -59.68159 | 31940 ft | 398 kts | 325° |
| 2026-04-30 20:01 | -32.88053 | -59.73238 | 31937 ft | 399 kts | 325° |
| 2026-04-30 20:01 | -32.83312 | -59.76599 | 31936 ft | 399 kts | 325° |
| 2026-04-30 20:02 | -32.76165 | -59.81665 | 31930 ft | 398 kts | 325° |
| 2026-04-30 20:03 | -32.69052 | -59.86706 | 31934 ft | 397 kts | 325° |
| 2026-04-30 20:03 | -32.64304 | -59.90072 | 31939 ft | 398 kts | 325° |
| 2026-04-30 20:04 | -32.59537 | -59.93445 | 31933 ft | 400 kts | 326° |
| 2026-04-30 20:05 | -32.52342 | -59.98459 | 31927 ft | 399 kts | 325° |
| 2026-04-30 20:05 | -32.45207 | -60.03486 | 31928 ft | 397 kts | 325° |
| 2026-04-30 20:06 | -32.40456 | -60.06839 | 31915 ft | 397 kts | 325° |
| 2026-04-30 20:06 | -32.35709 | -60.10187 | 31920 ft | 397 kts | 325° |
| 2026-04-30 20:07 | -32.30963 | -60.13524 | 31919 ft | 397 kts | 325° |
| 2026-04-30 20:08 | -32.23827 | -60.18533 | 31923 ft | 398 kts | 326° |
| 2026-04-30 20:08 | -32.19061 | -60.21863 | 31914 ft | 398 kts | 326° |
| 2026-04-30 20:09 | -32.14291 | -60.25188 | 31918 ft | 398 kts | 326° |
| 2026-04-30 20:09 | -32.07137 | -60.30179 | 31922 ft | 398 kts | 326° |
| 2026-04-30 20:10 | -31.99979 | -60.35168 | 31917 ft | 398 kts | 326° |
| 2026-04-30 20:11 | -31.92842 | -60.40134 | 31928 ft | 396 kts | 325° |
| 2026-04-30 20:11 | -31.88093 | -60.43434 | 31933 ft | 396 kts | 326° |
| 2026-04-30 20:12 | -31.81010 | -60.48360 | 31926 ft | 397 kts | 325° |
| 2026-04-30 20:13 | -31.76329 | -60.51807 | 31933 ft | 397 kts | 323° |
| 2026-04-30 20:13 | -31.71709 | -60.55388 | 31932 ft | 398 kts | 323° |
| 2026-04-30 20:14 | -31.67088 | -60.58953 | 31927 ft | 396 kts | 323° |
| 2026-04-30 20:14 | -31.62477 | -60.62474 | 31889 ft | 395 kts | 323° |
| 2026-04-30 20:15 | -31.57883 | -60.65961 | 31900 ft | 396 kts | 323° |
| 2026-04-30 20:15 | -31.53251 | -60.69476 | 31904 ft | 397 kts | 323° |
| 2026-04-30 20:16 | -31.48610 | -60.72997 | 31902 ft | 398 kts | 323° |
| 2026-04-30 20:16 | -31.43954 | -60.76525 | 31911 ft | 398 kts | 323° |
| 2026-04-30 20:17 | -31.39306 | -60.80028 | 31898 ft | 396 kts | 323° |
| 2026-04-30 20:17 | -31.34669 | -60.83522 | 31904 ft | 396 kts | 323° |
| 2026-04-30 20:18 | -31.30039 | -60.87016 | 31906 ft | 397 kts | 323° |
| 2026-04-30 20:18 | -31.25494 | -60.90445 | 31897 ft | 397 kts | 323° |
| 2026-04-30 20:19 | -31.20847 | -60.93945 | 31889 ft | 397 kts | 323° |
| 2026-04-30 20:19 | -31.16953 | -60.96876 | 31896 ft | 397 kts | 323° |
| 2026-04-30 20:20 | -31.12311 | -61.00365 | 31898 ft | 397 kts | 323° |
| 2026-04-30 20:20 | -31.07659 | -61.03860 | 31900 ft | 397 kts | 323° |
| 2026-04-30 20:21 | -31.03009 | -61.07354 | 31905 ft | 397 kts | 323° |
| 2026-04-30 20:21 | -30.98391 | -61.10787 | 31888 ft | 396 kts | 323° |
| 2026-04-30 20:22 | -30.93750 | -61.14231 | 31895 ft | 396 kts | 323° |
| 2026-04-30 20:22 | -30.89100 | -61.17693 | 31897 ft | 397 kts | 323° |
| 2026-04-30 20:23 | -30.84440 | -61.21166 | 31896 ft | 397 kts | 323° |
| 2026-04-30 20:23 | -30.79781 | -61.24635 | 31867 ft | 398 kts | 323° |
| 2026-04-30 20:24 | -30.75113 | -61.28108 | 31886 ft | 398 kts | 324° |
| 2026-04-30 20:24 | -30.70441 | -61.31576 | 31892 ft | 398 kts | 323° |
| 2026-04-30 20:25 | -30.63427 | -61.36763 | 31893 ft | 398 kts | 324° |
| 2026-04-30 20:26 | -30.56463 | -61.41901 | 31890 ft | 396 kts | 324° |
| 2026-04-30 20:26 | -30.49477 | -61.47061 | 31885 ft | 397 kts | 323° |
| 2026-04-30 20:27 | -30.40135 | -61.53947 | 31883 ft | 398 kts | 324° |
| 2026-04-30 20:28 | -30.30764 | -61.60838 | 31880 ft | 399 kts | 324° |
| 2026-04-30 20:30 | -30.19158 | -61.69323 | 31879 ft | 394 kts | 324° |
| 2026-04-30 20:31 | -30.05157 | -61.79561 | 31879 ft | 398 kts | 324° |
| 2026-04-30 20:32 | -29.93498 | -61.88064 | 31861 ft | 397 kts | 324° |
| 2026-04-30 20:33 | -29.86451 | -61.93151 | 31877 ft | 401 kts | 327° |
| 2026-04-30 20:34 | -29.79061 | -61.97662 | 31872 ft | 400 kts | 328° |
| 2026-04-30 20:35 | -29.71730 | -62.02108 | 31850 ft | 399 kts | 328° |
| 2026-04-30 20:35 | -29.64386 | -62.06642 | 31873 ft | 400 kts | 328° |
| 2026-04-30 20:36 | -29.59476 | -62.09673 | 31871 ft | 401 kts | 328° |
| 2026-04-30 20:37 | -29.52096 | -62.14212 | 31871 ft | 400 kts | 328° |
| 2026-04-30 20:37 | -29.47196 | -62.17216 | 31860 ft | 399 kts | 328° |
| 2026-04-30 20:38 | -29.42304 | -62.20204 | 31866 ft | 398 kts | 328° |
| 2026-04-30 20:38 | -29.37406 | -62.23199 | 31882 ft | 399 kts | 328° |
| 2026-04-30 20:39 | -29.30044 | -62.27700 | 31869 ft | 400 kts | 328° |
| 2026-04-30 20:40 | -29.22676 | -62.32197 | 31861 ft | 399 kts | 328° |
| 2026-04-30 20:40 | -29.17783 | -62.35177 | 31864 ft | 398 kts | 328° |
| 2026-04-30 20:41 | -29.10450 | -62.39636 | 31865 ft | 398 kts | 328° |
| 2026-04-30 20:41 | -29.05585 | -62.42588 | 31862 ft | 399 kts | 328° |
| 2026-04-30 20:42 | -29.00749 | -62.45520 | 31857 ft | 399 kts | 328° |
| 2026-04-30 20:43 | -28.93380 | -62.49986 | 31860 ft | 400 kts | 328° |
| 2026-04-30 20:43 | -28.88469 | -62.52959 | 31869 ft | 399 kts | 328° |
| 2026-04-30 20:44 | -28.81239 | -62.57583 | 31851 ft | 394 kts | 322° |
| 2026-04-30 20:45 | -28.72438 | -62.65066 | 31853 ft | 395 kts | 321° |
| 2026-04-30 20:45 | -28.68042 | -62.68772 | 31854 ft | 396 kts | 321° |
| 2026-04-30 20:46 | -28.59119 | -62.76151 | 31844 ft | 395 kts | 321° |
| 2026-04-30 20:47 | -28.52483 | -62.81628 | 31850 ft | 391 kts | 321° |
| 2026-04-30 20:48 | -28.45845 | -62.87111 | 31859 ft | 395 kts | 321° |
| 2026-04-30 20:48 | -28.41388 | -62.90772 | 31852 ft | 396 kts | 321° |
| 2026-04-30 20:49 | -28.36927 | -62.94438 | 31851 ft | 395 kts | 321° |
| 2026-04-30 20:50 | -28.30265 | -62.99916 | 31851 ft | 393 kts | 321° |
| 2026-04-30 20:50 | -28.25835 | -63.03557 | 31846 ft | 394 kts | 321° |
| 2026-04-30 20:51 | -28.21393 | -63.07204 | 31846 ft | 394 kts | 321° |
| 2026-04-30 20:51 | -28.14752 | -63.12648 | 31833 ft | 395 kts | 321° |
| 2026-04-30 20:52 | -28.10293 | -63.16290 | 31841 ft | 395 kts | 322° |
| 2026-04-30 20:53 | -28.03600 | -63.21748 | 31844 ft | 395 kts | 322° |
| 2026-04-30 20:53 | -27.99147 | -63.25379 | 31837 ft | 393 kts | 322° |
| 2026-04-30 20:54 | -27.92495 | -63.30802 | 31823 ft | 393 kts | 321° |
| 2026-04-30 20:55 | -27.85838 | -63.36224 | 31838 ft | 393 kts | 321° |
| 2026-04-30 20:55 | -27.81410 | -63.39825 | 31834 ft | 392 kts | 322° |
| 2026-04-30 20:56 | -27.74802 | -63.45176 | 31840 ft | 393 kts | 322° |
| 2026-04-30 20:57 | -27.68138 | -63.50568 | 31826 ft | 393 kts | 322° |
| 2026-04-30 20:57 | -27.63692 | -63.54166 | 31830 ft | 394 kts | 322° |
| 2026-04-30 20:58 | -27.57018 | -63.59561 | 31832 ft | 393 kts | 322° |
| 2026-04-30 20:58 | -27.52611 | -63.63120 | 31824 ft | 391 kts | 322° |
| 2026-04-30 20:59 | -27.45972 | -63.68473 | 31805 ft | 391 kts | 322° |
| 2026-04-30 21:00 | -27.37116 | -63.75583 | 31833 ft | 391 kts | 322° |
| 2026-04-30 21:01 | -27.30472 | -63.80918 | 31823 ft | 392 kts | 322° |
| 2026-04-30 21:02 | -27.23810 | -63.86262 | 31821 ft | 392 kts | 322° |
| 2026-04-30 21:02 | -27.19367 | -63.89823 | 31810 ft | 392 kts | 322° |
| 2026-04-30 21:03 | -27.14919 | -63.93383 | 31814 ft | 393 kts | 322° |
| 2026-04-30 21:03 | -27.10475 | -63.96940 | 31815 ft | 392 kts | 322° |
| 2026-04-30 21:04 | -27.06049 | -64.00483 | 31810 ft | 390 kts | 322° |
| 2026-04-30 21:04 | -27.00161 | -64.05191 | 31826 ft | 391 kts | 322° |
| 2026-04-30 21:05 | -26.95714 | -64.08743 | 31811 ft | 394 kts | 322° |
| 2026-04-30 21:05 | -26.91233 | -64.12312 | 31812 ft | 395 kts | 322° |
| 2026-04-30 21:06 | -26.86783 | -64.15894 | 31810 ft | 393 kts | 322° |
| 2026-04-30 21:06 | -26.82364 | -64.19476 | 31818 ft | 392 kts | 322° |
| 2026-04-30 21:07 | -26.77944 | -64.23062 | 31816 ft | 393 kts | 321° |
| 2026-04-30 21:07 | -26.73511 | -64.26649 | 31806 ft | 394 kts | 322° |
| 2026-04-30 21:08 | -26.69053 | -64.30250 | 31812 ft | 395 kts | 322° |
| 2026-04-30 21:08 | -26.64588 | -64.33851 | 31820 ft | 396 kts | 322° |
| 2026-04-30 21:09 | -26.60144 | -64.37431 | 31823 ft | 396 kts | 322° |
| 2026-04-30 21:09 | -26.55657 | -64.41031 | 31832 ft | 397 kts | 322° |
| 2026-04-30 21:10 | -26.51165 | -64.44632 | 31813 ft | 397 kts | 322° |
| 2026-04-30 21:10 | -26.46676 | -64.48233 | 31831 ft | 397 kts | 322° |
| 2026-04-30 21:11 | -26.42190 | -64.51834 | 31835 ft | 397 kts | 322° |
| 2026-04-30 21:11 | -26.37698 | -64.55435 | 31843 ft | 397 kts | 322° |
| 2026-04-30 21:12 | -26.33235 | -64.59008 | 31843 ft | 398 kts | 322° |
| 2026-04-30 21:12 | -26.28731 | -64.62611 | 31876 ft | 401 kts | 322° |
| 2026-04-30 21:13 | -26.26467 | -64.64419 | 32247 ft | 398 kts | 322° |
| 2026-04-30 21:13 | -26.24233 | -64.66195 | 32824 ft | 391 kts | 322° |
| 2026-04-30 21:13 | -26.22036 | -64.67937 | 33364 ft | 385 kts | 321° |
| 2026-04-30 21:13 | -26.19859 | -64.69667 | 33628 ft | 385 kts | 321° |
| 2026-04-30 21:14 | -26.17677 | -64.71405 | 33760 ft | 387 kts | 321° |
| 2026-04-30 21:14 | -26.15478 | -64.73155 | 33813 ft | 389 kts | 321° |
| 2026-04-30 21:14 | -26.11064 | -64.76680 | 33859 ft | 390 kts | 321° |
| 2026-04-30 21:15 | -26.06674 | -64.80182 | 33873 ft | 387 kts | 321° |
| 2026-04-30 21:15 | -26.02307 | -64.83653 | 33874 ft | 386 kts | 321° |
| 2026-04-30 21:16 | -25.97956 | -64.87104 | 33881 ft | 387 kts | 322° |
| 2026-04-30 21:16 | -25.93571 | -64.90584 | 33887 ft | 388 kts | 321° |
| 2026-04-30 21:17 | -25.89164 | -64.94062 | 33879 ft | 388 kts | 321° |
| 2026-04-30 21:17 | -25.86958 | -64.95803 | 33610 ft | 391 kts | 322° |
| 2026-04-30 21:17 | -25.84731 | -64.97564 | 33137 ft | 392 kts | 322° |
| 2026-04-30 21:18 | -25.82508 | -64.99324 | 32615 ft | 393 kts | 322° |
| 2026-04-30 21:18 | -25.80283 | -65.01090 | 32022 ft | 393 kts | 322° |
| 2026-04-30 21:18 | -25.78055 | -65.02860 | 31418 ft | 395 kts | 322° |
| 2026-04-30 21:18 | -25.75812 | -65.04638 | 30799 ft | 398 kts | 322° |
| 2026-04-30 21:19 | -25.73542 | -65.06438 | 30168 ft | 403 kts | 322° |
| 2026-04-30 21:19 | -25.71249 | -65.08248 | 29478 ft | 405 kts | 323° |
| 2026-04-30 21:19 | -25.68833 | -65.09838 | 28822 ft | 404 kts | 333° |
| 2026-04-30 21:19 | -25.66238 | -65.10999 | 28201 ft | 401 kts | 336° |
| 2026-04-30 21:20 | -25.63619 | -65.12050 | 27573 ft | 400 kts | 336° |
| 2026-04-30 21:20 | -25.61013 | -65.13089 | 26948 ft | 397 kts | 336° |
| 2026-04-30 21:20 | -25.58422 | -65.14137 | 26314 ft | 394 kts | 336° |
| 2026-04-30 21:20 | -25.55872 | -65.15202 | 25676 ft | 391 kts | 336° |
| 2026-04-30 21:21 | -25.53327 | -65.16261 | 25062 ft | 389 kts | 335° |
| 2026-04-30 21:21 | -25.50836 | -65.17316 | 24460 ft | 388 kts | 335° |
| 2026-04-30 21:21 | -25.45805 | -65.19470 | 23179 ft | 387 kts | 334° |
| 2026-04-30 21:22 | -25.43299 | -65.20540 | 22475 ft | 385 kts | 334° |
| 2026-04-30 21:22 | -25.35916 | -65.23732 | 20641 ft | 374 kts | 334° |
| 2026-04-30 21:23 | -25.33499 | -65.24757 | 20052 ft | 371 kts | 334° |
| 2026-04-30 21:23 | -25.31096 | -65.25775 | 19467 ft | 368 kts | 334° |
| 2026-04-30 21:23 | -25.26348 | -65.27790 | 18265 ft | 362 kts | 335° |
| 2026-04-30 21:24 | -25.24007 | -65.28783 | 17609 ft | 359 kts | 335° |
| 2026-04-30 21:24 | -25.21742 | -65.29914 | 16711 ft | 358 kts | 324° |
| 2026-04-30 21:24 | -25.19928 | -65.31813 | 15472 ft | 364 kts | 302° |
| 2026-04-30 21:24 | -25.18906 | -65.34324 | 14395 ft | 359 kts | 284° |
| 2026-04-30 21:25 | -25.17768 | -65.39491 | 13269 ft | 326 kts | 285° |
| 2026-04-30 21:25 | -25.17135 | -65.41804 | 13096 ft | 303 kts | 288° |
| 2026-04-30 21:25 | -25.16522 | -65.43922 | 12989 ft | 278 kts | 278° |
| 2026-04-30 21:26 | -25.17272 | -65.48073 | 11610 ft | 284 kts | 252° |
| 2026-04-30 21:26 | -25.17915 | -65.50159 | 10841 ft | 289 kts | 252° |
| 2026-04-30 21:27 | -25.17886 | -65.54442 | 9364 ft | 289 kts | 303° |
| 2026-04-30 21:27 | -25.16532 | -65.55989 | 8740 ft | 282 kts | 330° |
| 2026-04-30 21:27 | -25.14728 | -65.56679 | 8279 ft | 272 kts | 357° |
| 2026-04-30 21:28 | -25.11217 | -65.55570 | 7315 ft | 262 kts | 21° |
| 2026-04-30 21:28 | -25.09521 | -65.54917 | 6988 ft | 253 kts | 18° |
| 2026-04-30 21:28 | -25.06228 | -65.53702 | 6421 ft | 248 kts | 19° |
| 2026-04-30 21:29 | -25.04613 | -65.53064 | 6211 ft | 243 kts | 18° |
| 2026-04-30 21:29 | -24.99930 | -65.51754 | 6032 ft | 230 kts | 30° |
| 2026-04-30 21:30 | -24.96920 | -65.51086 | 6002 ft | 201 kts | 17° |
| 2026-04-30 21:31 | -24.93322 | -65.50312 | 5255 ft | 158 kts | 12° |
| 2026-04-30 21:31 | -24.91306 | -65.49857 | 4808 ft | 147 kts | 14° |
| 2026-04-30 21:32 | -24.89343 | -65.49444 | 4499 ft | 140 kts | 12° |
| 2026-04-30 21:32 | -24.88362 | -65.49225 | 4316 ft | 141 kts | 11° |
| 2026-04-30 21:32 | -24.87369 | -65.49006 | 4093 ft | 148 kts | 11° |
| 2026-04-30 21:32 | -24.86411 | -65.48801 | 4017 ft | 130 kts | 11° |
| 2026-04-30 21:33 | -24.85602 | -65.48627 | 4020 ft | 106 kts | 11° |
| 2026-04-30 21:33 | -24.84792 | -65.48454 | 4019 ft | 34 kts | 11° |
| 2026-04-30 21:33 | -24.84614 | -65.48327 | 4018 ft | 27 kts | 56° |
| 2026-04-30 21:34 | -24.84553 | -65.48140 | 4018 ft | 23 kts | 72° |
| 2026-04-30 21:34 | -24.84501 | -65.47966 | 4018 ft | 8 kts | 77° |
| 2026-04-30 21:34 | -24.84511 | -65.47906 | 4018 ft | 8 kts | 111° |
| 2026-04-30 21:35 | -24.84528 | -65.47853 | 4018 ft | 2 kts | 90° |
| 2026-04-30 21:35 | -24.84526 | -65.47847 | 4018 ft | 0 kts | 65° |
| 2026-04-30 21:35 | -24.84518 | -65.47837 | 4018 ft | 3 kts | 43° |
| 2026-04-30 21:35 | -24.84507 | -65.47829 | 4018 ft | 1 kts | 24° |
| 2026-04-30 21:36 | -24.84503 | -65.47828 | 4018 ft | 0 kts | 21° |